createdAt,value
2022-09-23T00:02:06.702Z,10.35
2022-09-23T00:04:34.814Z,8.88
2022-09-23T00:07:02.804Z,9.52
2022-09-23T00:09:30.804Z,9.95
2022-09-23T00:12:00.808Z,11.20
2022-09-23T00:14:28.850Z,7.78
2022-09-23T00:16:56.880Z,8.57
2022-09-23T00:19:24.967Z,8.48
2022-09-23T00:21:53.233Z,8.50
2022-09-23T00:24:21.219Z,7.85
2022-09-23T00:26:49.207Z,8.35
2022-09-23T00:29:19.015Z,9.73
2022-09-23T00:31:47.860Z,7.45
2022-09-23T00:34:15.841Z,7.50
2022-09-23T00:36:44.682Z,8.45
2022-09-23T00:39:12.696Z,7.47
2022-09-23T00:41:41.563Z,8.02
2022-09-23T00:44:45.871Z,9.60
2022-09-23T00:47:22.225Z,8.30
2022-09-23T00:50:02.144Z,8.52
2022-09-23T00:52:32.747Z,10.60
2022-09-23T00:55:03.938Z,9.02
2022-09-23T00:57:32.752Z,8.00
2022-09-23T01:00:02.688Z,8.50
2022-09-23T01:02:31.714Z,8.02
2022-09-23T01:05:00.421Z,6.82
2022-09-23T01:07:28.487Z,8.88
2022-09-23T01:09:56.529Z,9.57
2022-09-23T01:12:44.443Z,5.70
2022-09-23T01:15:18.207Z,8.52
2022-09-23T01:17:53.325Z,7.30
2022-09-23T01:20:52.421Z,12.50
2022-09-23T01:23:59.837Z,7.45
2022-09-23T01:26:49.805Z,7.65
2022-09-23T01:29:50.073Z,7.70
2022-09-23T01:32:32.035Z,8.75
2022-09-23T01:35:08.749Z,7.88
2022-09-23T01:37:46.050Z,9.48
2022-09-23T01:40:21.206Z,9.02
2022-09-23T01:42:54.443Z,7.47
2022-09-23T01:45:30.102Z,8.27
2022-09-23T01:48:10.457Z,12.68
2022-09-23T01:50:59.518Z,9.60
2022-09-23T01:53:35.782Z,8.48
2022-09-23T01:56:09.143Z,8.55
2022-09-23T01:58:43.322Z,9.38
2022-09-23T02:01:16.968Z,9.15
2022-09-23T02:03:51.456Z,14.18
2022-09-23T02:06:24.800Z,9.77
2022-09-23T02:08:56.847Z,9.55
2022-09-23T02:11:25.323Z,9.95
2022-09-23T02:13:57.304Z,9.05
2022-09-23T02:16:32.032Z,8.85
2022-09-23T02:19:07.017Z,8.82
2022-09-23T02:21:38.419Z,8.48
2022-09-23T02:24:14.677Z,9.52
2022-09-23T02:26:49.399Z,11.07
2022-09-23T02:29:27.002Z,9.48
2022-09-23T02:32:18.065Z,10.85
2022-09-23T02:34:54.141Z,11.23
2022-09-23T02:37:29.060Z,10.68
2022-09-23T02:40:03.410Z,10.43
2022-09-23T02:42:40.535Z,9.02
2022-09-23T02:45:09.052Z,9.32
2022-09-23T02:47:40.176Z,11.15
2022-09-23T02:50:10.618Z,8.63
2022-09-23T02:52:39.173Z,10.77
2022-09-23T02:55:09.884Z,9.65
2022-09-23T02:57:37.954Z,11.43
2022-09-23T03:00:07.577Z,11.90
2022-09-23T03:02:56.074Z,9.60
2022-09-23T03:05:30.323Z,8.02
2022-09-23T03:08:13.331Z,8.73
2022-09-23T03:13:31.596Z,9.27
2022-09-23T03:16:10.638Z,7.38
2022-09-23T03:18:42.915Z,7.97
2022-09-23T03:21:18.423Z,8.68
2022-09-23T03:23:48.244Z,8.45
2022-09-23T03:26:23.539Z,9.68
2022-09-23T03:28:52.136Z,8.95
2022-09-23T03:31:20.436Z,14.07
2022-09-23T03:33:52.142Z,8.52
2022-09-23T03:36:45.444Z,11.77
2022-09-23T03:41:51.033Z,7.88
2022-09-23T03:44:19.681Z,6.82
2022-09-23T03:46:49.976Z,8.73
2022-09-23T03:49:27.425Z,10.15
2022-09-23T03:51:57.131Z,6.57
2022-09-23T03:54:25.668Z,11.18
2022-09-23T03:56:57.727Z,9.55
2022-09-23T03:59:26.165Z,7.60
2022-09-23T04:01:55.716Z,9.00
2022-09-23T04:04:23.858Z,7.78
2022-09-23T04:06:51.916Z,9.82
2022-09-23T04:09:21.898Z,9.35
2022-09-23T04:11:50.859Z,9.13
2022-09-23T04:14:19.929Z,9.35
2022-09-23T04:16:49.051Z,8.65
2022-09-23T04:19:17.595Z,10.57
2022-09-23T04:21:46.742Z,9.27
2022-09-23T04:24:15.368Z,13.15
2022-09-23T04:26:45.253Z,7.60
2022-09-23T04:29:13.360Z,10.20
2022-09-23T04:31:41.455Z,12.88
2022-09-23T04:34:10.345Z,7.35
2022-09-23T04:36:38.648Z,9.13
2022-09-23T04:39:06.961Z,7.50
2022-09-23T04:41:35.162Z,12.32
2022-09-23T04:44:05.555Z,7.75
2022-09-23T04:46:33.655Z,14.23
2022-09-23T04:49:01.818Z,10.45
2022-09-23T04:51:29.932Z,12.18
2022-09-23T04:53:57.972Z,10.20
2022-09-23T04:56:27.703Z,7.13
2022-09-23T04:58:57.376Z,9.18
2022-09-23T05:01:29.219Z,14.13
2022-09-23T05:04:02.579Z,8.90
2022-09-23T05:06:31.585Z,11.43
2022-09-23T05:09:00.586Z,23.10
2022-09-23T05:11:31.509Z,16.75
2022-09-23T05:14:00.143Z,18.13
2022-09-23T05:16:29.887Z,19.20
2022-09-23T05:18:58.179Z,18.35
2022-09-23T05:21:28.544Z,15.02
2022-09-23T05:24:00.460Z,22.58
2022-09-23T05:26:30.815Z,10.73
2022-09-23T05:28:59.681Z,13.60
2022-09-23T05:31:31.035Z,21.10
2022-09-23T05:34:00.618Z,35.97
2022-09-23T05:36:34.316Z,40.67
2022-09-23T05:39:06.140Z,30.42
2022-09-23T05:41:34.692Z,31.60
2022-09-23T05:44:03.398Z,21.00
2022-09-23T05:46:33.365Z,19.10
2022-09-23T05:49:03.458Z,14.60
2022-09-23T05:51:35.051Z,13.57
2022-09-23T05:54:04.380Z,14.20
2022-09-23T05:56:33.876Z,9.68
2022-09-23T05:59:03.198Z,10.65
2022-09-23T06:01:35.474Z,10.05
2022-09-23T06:04:05.569Z,14.60
2022-09-23T06:06:35.208Z,10.23
2022-09-23T06:09:04.133Z,13.70
2022-09-23T06:11:34.458Z,16.17
2022-09-23T06:14:02.995Z,12.50
2022-09-23T06:16:34.500Z,11.98
2022-09-23T06:19:06.595Z,11.32
2022-09-23T06:21:36.808Z,12.40
2022-09-23T06:24:05.820Z,15.48
2022-09-23T06:26:35.358Z,15.75
2022-09-23T06:29:04.325Z,11.00
2022-09-23T06:31:34.174Z,14.65
2022-09-23T06:34:10.721Z,10.98
2022-09-23T06:36:44.541Z,11.68
2022-09-23T06:39:14.334Z,16.00
2022-09-23T06:41:42.615Z,13.73
2022-09-23T06:44:10.794Z,14.77
2022-09-23T06:46:40.350Z,15.23
2022-09-23T06:49:08.431Z,13.50
2022-09-23T06:51:36.848Z,14.90
2022-09-23T06:54:04.985Z,15.95
2022-09-23T06:56:37.931Z,11.85
2022-09-23T06:59:07.138Z,15.48
2022-09-23T07:01:35.905Z,9.85
2022-09-23T07:04:07.845Z,12.70
2022-09-23T07:06:36.275Z,8.35
2022-09-23T07:09:04.863Z,7.63
2022-09-23T07:11:32.949Z,6.70
2022-09-23T07:14:01.069Z,10.00
2022-09-23T07:16:29.134Z,6.80
2022-09-23T07:18:57.286Z,6.15
2022-09-23T07:21:27.972Z,8.80
2022-09-23T07:23:58.232Z,8.98
2022-09-23T07:26:26.894Z,8.80
2022-09-23T07:28:56.595Z,7.78
2022-09-23T07:31:37.569Z,11.05
2022-09-23T07:34:07.616Z,10.20
2022-09-23T07:36:37.627Z,7.05
2022-09-23T07:39:05.961Z,8.20
2022-09-23T07:41:35.674Z,8.00
2022-09-23T07:44:06.335Z,6.63
2022-09-23T07:46:36.298Z,8.77
2022-09-23T07:49:05.474Z,7.95
2022-09-23T07:51:37.143Z,5.82
2022-09-23T07:54:08.030Z,7.38
2022-09-23T07:56:37.257Z,6.53
2022-09-23T07:59:05.477Z,4.65
2022-09-23T08:01:36.429Z,6.40
2022-09-23T08:04:06.770Z,6.57
2022-09-23T08:06:36.927Z,4.78
2022-09-23T08:09:05.144Z,7.43
2022-09-23T08:11:33.200Z,5.90
2022-09-23T08:14:01.416Z,9.02
2022-09-23T08:16:29.550Z,9.55
2022-09-23T08:18:57.706Z,9.55
2022-09-23T08:21:25.739Z,9.00
2022-09-23T08:23:55.232Z,6.80
2022-09-23T08:26:23.282Z,6.55
2022-09-23T08:28:53.996Z,7.22
2022-09-23T08:31:23.012Z,10.98
2022-09-23T08:33:55.866Z,6.65
2022-09-23T08:36:23.989Z,7.68
2022-09-23T08:38:52.074Z,6.65
2022-09-23T08:41:32.067Z,7.75
2022-09-23T08:44:06.795Z,10.15
2022-09-23T08:46:39.210Z,8.30
2022-09-23T08:49:08.399Z,14.18
2022-09-23T08:51:42.552Z,6.68
2022-09-23T08:54:12.369Z,7.75
2022-09-23T08:56:45.673Z,10.48
2022-09-23T08:59:19.789Z,7.32
2022-09-23T09:01:51.482Z,8.38
2022-09-23T09:04:24.154Z,9.70
2022-09-23T09:09:31.607Z,8.68
2022-09-23T09:12:08.616Z,7.85
2022-09-23T09:14:44.356Z,15.90
2022-09-23T09:17:18.003Z,9.40
2022-09-23T09:19:55.491Z,9.55
2022-09-23T09:22:39.100Z,8.75
2022-09-23T09:25:18.902Z,8.77
2022-09-23T09:27:49.108Z,7.38
2022-09-23T09:30:18.475Z,9.35
2022-09-23T09:32:50.121Z,10.95
2022-09-23T09:35:25.188Z,9.05
2022-09-23T09:37:53.479Z,12.90
2022-09-23T09:40:21.781Z,9.20
2022-09-23T09:42:51.873Z,9.10
2022-09-23T09:45:33.370Z,8.13
2022-09-23T09:48:07.652Z,10.05
2022-09-23T09:50:49.600Z,6.65
2022-09-23T09:53:24.173Z,8.43
2022-09-23T09:56:05.254Z,8.32
2022-09-23T09:58:46.385Z,10.98
2022-09-23T10:01:25.894Z,7.60
2022-09-23T10:03:59.243Z,9.52
2022-09-23T10:06:29.507Z,9.88
2022-09-23T10:09:17.244Z,8.52
2022-09-23T10:12:04.881Z,7.38
2022-09-23T10:14:36.454Z,6.45
2022-09-23T10:17:06.578Z,8.18
2022-09-23T10:19:38.019Z,8.75
2022-09-23T10:22:18.241Z,6.60
2022-09-23T10:24:50.270Z,7.38
2022-09-23T10:27:29.146Z,8.15
2022-09-23T10:30:00.845Z,6.78
2022-09-23T10:32:33.888Z,6.60
2022-09-23T10:35:16.353Z,5.32
2022-09-23T10:37:48.466Z,6.68
2022-09-23T10:40:37.722Z,6.88
2022-09-23T10:43:46.066Z,5.65
2022-09-23T10:46:37.730Z,5.40
2022-09-23T10:49:22.849Z,9.20
2022-09-23T10:52:02.861Z,7.40
2022-09-23T10:54:41.363Z,6.97
2022-09-23T10:57:41.852Z,5.40
2022-09-23T11:00:22.709Z,6.72
2022-09-23T11:03:10.624Z,8.02
2022-09-23T11:05:47.611Z,6.13
2022-09-23T11:08:33.208Z,9.20
2022-09-23T11:11:18.678Z,7.00
2022-09-23T11:14:00.464Z,6.22
2022-09-23T11:16:42.093Z,7.60
2022-09-23T11:19:26.447Z,8.55
2022-09-23T11:22:14.171Z,6.65
2022-09-23T11:25:19.082Z,8.90
2022-09-23T11:28:09.910Z,8.23
2022-09-23T11:30:48.901Z,7.85
2022-09-23T11:33:32.270Z,11.25
2022-09-23T11:36:06.859Z,7.20
2022-09-23T11:38:38.817Z,8.27
2022-09-23T11:41:17.631Z,6.97
2022-09-23T11:43:52.411Z,7.85
2022-09-23T11:46:29.648Z,6.50
2022-09-23T11:49:02.852Z,8.30
2022-09-23T11:51:38.193Z,5.80
2022-09-23T11:54:16.165Z,5.68
2022-09-23T11:56:51.695Z,7.28
2022-09-23T11:59:39.682Z,6.95
2022-09-23T12:02:22.956Z,6.95
2022-09-23T12:05:01.519Z,9.07
2022-09-23T12:07:43.567Z,6.72
2022-09-23T12:10:12.599Z,6.13
2022-09-23T12:12:50.217Z,6.07
2022-09-23T12:15:31.947Z,7.97
2022-09-23T12:18:33.154Z,8.30
2022-09-23T12:21:49.910Z,5.97
2022-09-23T12:24:58.411Z,6.03
2022-09-23T12:27:36.986Z,5.70
2022-09-23T12:30:08.293Z,8.70
2022-09-23T12:32:36.454Z,4.00
2022-09-23T12:35:04.732Z,4.75
2022-09-23T12:37:37.250Z,6.28
2022-09-23T12:42:45.999Z,3.10
2022-09-23T12:45:34.918Z,5.60
2022-09-23T12:48:05.209Z,4.85
2022-09-23T12:50:52.119Z,7.72
2022-09-23T12:54:10.966Z,9.63
2022-09-23T12:57:02.720Z,4.72
2022-09-23T12:59:33.361Z,7.03
2022-09-23T13:02:32.616Z,7.63
2022-09-23T13:05:28.420Z,6.75
2022-09-23T13:08:01.268Z,4.30
2022-09-23T13:10:34.049Z,4.07
2022-09-23T13:13:04.079Z,5.93
2022-09-23T13:15:35.192Z,4.22
2022-09-23T13:18:25.569Z,6.03
2022-09-23T13:20:56.990Z,5.20
2022-09-23T13:23:26.888Z,3.75
2022-09-23T13:25:58.155Z,3.67
2022-09-23T13:28:34.751Z,4.55
2022-09-23T13:31:07.856Z,6.13
2022-09-23T13:33:42.756Z,4.63
2022-09-23T13:36:14.257Z,6.40
2022-09-23T13:38:42.950Z,4.40
2022-09-23T13:41:16.308Z,5.70
2022-09-23T13:43:49.384Z,4.28
2022-09-23T13:46:20.231Z,4.72
2022-09-23T13:48:52.379Z,4.10
2022-09-23T13:51:24.936Z,4.47
2022-09-23T13:56:24.266Z,3.40
2022-09-23T13:58:54.107Z,3.22
2022-09-23T14:01:30.469Z,6.45
2022-09-23T14:03:58.716Z,5.00
2022-09-23T14:06:28.229Z,5.65
2022-09-23T14:08:57.513Z,4.50
2022-09-23T14:11:33.249Z,7.57
2022-09-23T14:14:08.047Z,4.07
2022-09-23T14:16:39.724Z,4.57
2022-09-23T14:19:08.144Z,4.87
2022-09-23T14:21:37.455Z,4.75
2022-09-23T14:24:24.409Z,4.40
2022-09-23T14:26:56.734Z,3.58
2022-09-23T14:29:28.698Z,5.50
2022-09-23T14:32:00.335Z,4.10
2022-09-23T14:34:42.980Z,4.47
2022-09-23T14:37:42.921Z,4.78
2022-09-23T14:40:15.768Z,5.55
2022-09-23T14:42:47.307Z,4.00
2022-09-23T14:45:20.720Z,3.55
2022-09-23T14:47:51.134Z,3.40
2022-09-23T14:50:39.584Z,4.15
2022-09-23T14:53:33.764Z,4.80
2022-09-23T14:56:29.360Z,3.35
2022-09-23T14:58:59.336Z,3.58
2022-09-23T15:01:40.252Z,5.25
2022-09-23T15:04:14.299Z,3.22
2022-09-23T15:06:47.798Z,3.38
2022-09-23T15:09:21.717Z,3.38
2022-09-23T15:11:52.985Z,2.45
2022-09-23T15:14:37.201Z,4.68
2022-09-23T15:17:16.791Z,4.50
2022-09-23T15:19:46.650Z,3.28
2022-09-23T15:22:16.758Z,4.72
2022-09-23T15:24:46.425Z,3.90
2022-09-23T15:27:31.052Z,3.63
2022-09-23T15:30:16.106Z,3.53
2022-09-23T15:32:46.306Z,5.72
2022-09-23T15:35:16.542Z,3.60
2022-09-23T15:37:46.102Z,6.07
2022-09-23T15:40:22.917Z,7.18
2022-09-23T15:42:52.768Z,3.25
2022-09-23T15:45:22.688Z,4.28
2022-09-23T15:47:52.514Z,7.70
2022-09-23T15:50:21.059Z,5.35
2022-09-23T15:52:49.239Z,4.35
2022-09-23T15:55:22.368Z,3.65
2022-09-23T15:57:50.790Z,3.78
2022-09-23T16:00:19.358Z,6.07
2022-09-23T16:02:49.691Z,3.90
2022-09-23T16:05:30.860Z,5.53
2022-09-23T16:07:59.490Z,4.65
2022-09-23T16:10:28.124Z,9.65
2022-09-23T16:13:00.309Z,7.70
2022-09-23T16:15:31.024Z,5.00
2022-09-23T16:17:59.609Z,8.00
2022-09-23T16:20:30.808Z,7.35
2022-09-23T16:23:00.982Z,3.22
2022-09-23T16:25:32.006Z,6.85
2022-09-23T16:28:00.017Z,4.22
2022-09-23T16:30:29.998Z,8.30
2022-09-23T16:32:58.918Z,7.30
2022-09-23T16:35:30.355Z,8.02
2022-09-23T16:37:58.409Z,8.82
2022-09-23T16:40:26.586Z,7.20
2022-09-23T16:42:56.058Z,16.27
2022-09-23T16:45:24.308Z,5.45
2022-09-23T16:47:54.388Z,8.20
2022-09-23T16:50:24.381Z,9.05
2022-09-23T16:52:56.271Z,6.70
2022-09-23T16:55:27.310Z,8.85
2022-09-23T16:57:55.895Z,8.40
2022-09-23T17:00:42.041Z,7.43
2022-09-23T17:03:31.046Z,12.40
2022-09-23T17:06:02.350Z,5.07
2022-09-23T17:08:34.501Z,6.90
2022-09-23T17:11:03.207Z,5.07
2022-09-23T17:13:32.535Z,5.65
2022-09-23T17:16:01.342Z,4.75
2022-09-23T17:18:29.834Z,4.88
2022-09-23T17:20:59.415Z,6.38
2022-09-23T17:23:28.486Z,8.02
2022-09-23T17:25:58.212Z,7.07
2022-09-23T17:28:26.697Z,4.55
2022-09-23T17:30:58.901Z,6.55
2022-09-23T17:33:27.074Z,6.40
2022-09-23T17:35:56.901Z,5.55
2022-09-23T17:38:28.858Z,7.47
2022-09-23T17:41:01.306Z,4.95
2022-09-23T17:43:30.310Z,4.30
2022-09-23T17:46:06.717Z,4.97
2022-09-23T17:48:36.818Z,5.68
2022-09-23T17:51:07.183Z,3.63
2022-09-23T17:53:37.134Z,4.20
2022-09-23T17:56:08.593Z,6.13
2022-09-23T17:58:38.435Z,4.57
2022-09-23T18:01:09.857Z,6.90
2022-09-23T18:03:38.006Z,5.60
2022-09-23T18:06:11.251Z,3.60
2022-09-23T18:08:39.987Z,5.05
2022-09-23T18:11:21.002Z,4.53
2022-09-23T18:13:50.921Z,5.13
2022-09-23T18:16:20.019Z,4.28
2022-09-23T18:18:52.133Z,6.22
2022-09-23T18:21:20.808Z,4.28
2022-09-23T18:23:49.045Z,5.97
2022-09-23T18:26:19.828Z,9.25
2022-09-23T18:28:48.372Z,6.88
2022-09-23T18:31:17.205Z,6.55
2022-09-23T18:33:49.597Z,4.95
2022-09-23T18:36:17.670Z,5.88
2022-09-23T18:38:46.013Z,10.02
2022-09-23T18:41:14.410Z,5.57
2022-09-23T18:43:48.325Z,10.60
2022-09-23T18:46:18.566Z,7.47
2022-09-23T18:49:04.290Z,7.03
2022-09-23T18:51:35.019Z,6.00
2022-09-23T18:54:05.536Z,6.13
2022-09-23T18:56:37.381Z,8.18
2022-09-23T18:59:08.784Z,6.70
2022-09-23T19:01:37.100Z,8.20
2022-09-23T19:04:06.910Z,8.35
2022-09-23T19:06:35.973Z,8.75
2022-09-23T19:09:06.717Z,11.05
2022-09-23T19:11:36.723Z,6.70
2022-09-23T19:14:10.726Z,6.05
2022-09-23T19:16:40.312Z,6.80
2022-09-23T19:19:09.621Z,5.80
2022-09-23T19:21:38.195Z,5.18
2022-09-23T19:24:10.980Z,6.20
2022-09-23T19:26:41.208Z,8.27
2022-09-23T19:29:15.178Z,3.88
2022-09-23T19:31:43.606Z,5.05
2022-09-23T19:34:15.620Z,5.20
2022-09-23T19:36:45.665Z,9.23
2022-09-23T19:39:18.428Z,12.68
2022-09-23T19:44:16.689Z,18.73
2022-09-23T19:46:50.645Z,19.48
2022-09-23T19:49:21.416Z,15.50
2022-09-23T19:51:49.572Z,13.32
2022-09-23T19:54:20.794Z,11.30
2022-09-23T19:56:49.771Z,15.38
2022-09-23T19:59:19.653Z,14.15
2022-09-23T20:01:48.737Z,34.03
2022-09-23T20:04:17.357Z,36.67
2022-09-23T20:06:46.185Z,30.33
2022-09-23T20:09:14.691Z,48.35
2022-09-23T20:11:44.309Z,64.43
2022-09-23T20:14:13.610Z,52.78
2022-09-23T20:16:43.189Z,44.10
2022-09-23T20:19:13.644Z,30.20
2022-09-23T20:21:41.769Z,31.73
2022-09-23T20:24:12.165Z,25.13
2022-09-23T20:26:59.869Z,20.08
2022-09-23T20:29:27.953Z,13.30
2022-09-23T20:31:58.774Z,9.52
2022-09-23T20:34:27.484Z,11.73
2022-09-23T20:36:55.650Z,10.32
2022-09-23T20:39:23.772Z,15.73
2022-09-23T20:41:53.120Z,11.75
2022-09-23T20:44:21.262Z,14.45
2022-09-23T20:46:49.645Z,20.08
2022-09-23T20:49:19.783Z,16.08
2022-09-23T20:51:49.215Z,28.02
2022-09-23T20:54:19.340Z,38.50
2022-09-23T20:56:47.553Z,43.47
2022-09-23T20:59:17.890Z,30.95
2022-09-23T21:01:47.956Z,25.58
2022-09-23T21:04:16.301Z,29.23
2022-09-23T21:06:45.739Z,26.20
2022-09-23T21:09:13.770Z,24.17
2022-09-23T21:11:54.703Z,22.70
2022-09-23T21:14:23.096Z,17.10
2022-09-23T21:19:50.191Z,13.00
2022-09-23T21:22:22.858Z,15.80
2022-09-23T21:27:42.647Z,18.67
2022-09-23T21:30:15.545Z,22.20
2022-09-23T21:35:14.553Z,17.67
2022-09-23T21:37:44.101Z,17.88
2022-09-23T21:40:29.776Z,19.95
2022-09-23T21:43:00.770Z,16.75
2022-09-23T21:45:29.256Z,22.52
2022-09-23T21:47:58.351Z,22.70
2022-09-23T21:50:30.250Z,17.52
2022-09-23T21:53:04.683Z,16.87
2022-09-23T21:55:32.935Z,18.58
2022-09-23T21:58:01.193Z,15.98
2022-09-23T22:00:29.479Z,11.85
2022-09-23T22:02:57.703Z,12.00
2022-09-23T22:05:26.987Z,9.25
2022-09-23T22:07:55.107Z,7.53
2022-09-23T22:10:27.027Z,6.63
2022-09-23T22:12:55.110Z,5.10
2022-09-23T22:15:23.629Z,4.78
2022-09-23T22:17:52.586Z,6.28
2022-09-23T22:20:21.029Z,6.72
2022-09-23T22:22:50.291Z,4.82
2022-09-23T22:25:18.610Z,5.40
2022-09-23T22:28:01.842Z,3.90
2022-09-23T22:30:47.475Z,7.97
2022-09-23T22:33:16.594Z,8.48
2022-09-23T22:35:44.741Z,8.63
2022-09-23T22:38:12.792Z,8.50
2022-09-23T22:40:44.199Z,13.23
2022-09-23T22:43:14.159Z,11.55
2022-09-23T22:45:50.338Z,10.32
2022-09-23T22:48:20.124Z,10.65
2022-09-23T22:50:48.202Z,9.07
2022-09-23T22:53:16.254Z,8.82
2022-09-23T22:55:44.318Z,11.88
2022-09-23T22:58:31.127Z,11.65
2022-09-23T23:01:00.080Z,13.13
2022-09-23T23:03:28.358Z,11.27
2022-09-23T23:05:57.578Z,14.02
2022-09-23T23:08:27.228Z,12.48
2022-09-23T23:10:56.106Z,12.77
2022-09-23T23:13:31.547Z,10.82
2022-09-23T23:16:04.563Z,15.15
2022-09-23T23:18:34.097Z,13.07
2022-09-23T23:21:10.074Z,10.30
2022-09-23T23:23:40.147Z,14.52
2022-09-23T23:26:10.255Z,10.35
2022-09-23T23:28:39.967Z,15.00
2022-09-23T23:31:09.766Z,15.02
2022-09-23T23:33:38.451Z,13.32
2022-09-23T23:36:07.592Z,14.32
2022-09-23T23:38:37.017Z,11.32
2022-09-23T23:41:06.937Z,13.05
2022-09-23T23:43:35.051Z,13.07
2022-09-23T23:46:04.588Z,10.88
2022-09-23T23:48:34.547Z,10.50
2022-09-23T23:51:05.639Z,11.50
2022-09-23T23:53:36.677Z,8.55
2022-09-23T23:56:06.120Z,10.93
2022-09-23T23:58:34.585Z,10.07
